sensor_id;sensor_type;location;lat;lon;timestamp;pressure;altitude;pressure_sealevel;temperature;humidity
72359;BME280;60317;48.880;-0.862;2022-09-17T00:00:47;100899.97;;;20.23;48.11
72359;BME280;60317;48.880;-0.862;2022-09-17T00:03:14;100899.09;;;20.22;47.90
72359;BME280;60317;48.880;-0.862;2022-09-17T00:05:41;100902.75;;;20.21;48.10
72359;BME280;60317;48.880;-0.862;2022-09-17T00:08:08;100899.22;;;20.21;47.93
72359;BME280;60317;48.880;-0.862;2022-09-17T00:10:37;100894.69;;;20.21;48.13
72359;BME280;60317;48.880;-0.862;2022-09-17T00:13:05;100898.38;;;20.20;48.00
72359;BME280;60317;48.880;-0.862;2022-09-17T00:15:31;100901.03;;;20.20;47.88
72359;BME280;60317;48.880;-0.862;2022-09-17T00:17:58;100909.09;;;20.20;48.02
72359;BME280;60317;48.880;-0.862;2022-09-17T00:20:24;100911.91;;;20.19;47.82
72359;BME280;60317;48.880;-0.862;2022-09-17T00:22:51;100910.78;;;20.21;47.85
72359;BME280;60317;48.880;-0.862;2022-09-17T00:25:17;100913.63;;;20.20;47.79
72359;BME280;60317;48.880;-0.862;2022-09-17T00:27:45;100924.50;;;20.18;47.74
72359;BME280;60317;48.880;-0.862;2022-09-17T00:30:12;100925.56;;;20.16;47.76
72359;BME280;60317;48.880;-0.862;2022-09-17T00:32:38;100920.91;;;20.18;47.87
72359;BME280;60317;48.880;-0.862;2022-09-17T00:35:05;100918.13;;;20.19;47.91
72359;BME280;60317;48.880;-0.862;2022-09-17T00:37:32;100918.50;;;20.15;47.82
72359;BME280;60317;48.880;-0.862;2022-09-17T00:39:58;100912.16;;;20.16;47.73
72359;BME280;60317;48.880;-0.862;2022-09-17T00:42:24;100909.47;;;20.16;47.67
72359;BME280;60317;48.880;-0.862;2022-09-17T00:44:53;100914.00;;;20.15;47.76
72359;BME280;60317;48.880;-0.862;2022-09-17T00:47:22;100910.44;;;20.15;47.74
72359;BME280;60317;48.880;-0.862;2022-09-17T00:49:50;100920.22;;;20.16;47.87
72359;BME280;60317;48.880;-0.862;2022-09-17T00:52:18;100920.22;;;20.16;47.74
72359;BME280;60317;48.880;-0.862;2022-09-17T00:54:48;100929.25;;;20.15;47.77
72359;BME280;60317;48.880;-0.862;2022-09-17T00:57:17;100930.19;;;20.14;47.87
72359;BME280;60317;48.880;-0.862;2022-09-17T00:59:44;100938.25;;;20.14;47.71
72359;BME280;60317;48.880;-0.862;2022-09-17T01:02:11;100936.41;;;20.14;47.61
72359;BME280;60317;48.880;-0.862;2022-09-17T01:04:38;100939.22;;;20.13;47.72
72359;BME280;60317;48.880;-0.862;2022-09-17T01:07:05;100940.06;;;20.13;47.62
72359;BME280;60317;48.880;-0.862;2022-09-17T01:09:35;100945.69;;;20.10;47.67
72359;BME280;60317;48.880;-0.862;2022-09-17T01:12:09;100933.00;;;20.12;47.82
72359;BME280;60317;48.880;-0.862;2022-09-17T01:14:43;100943.00;;;20.10;47.59
72359;BME280;60317;48.880;-0.862;2022-09-17T01:17:27;100943.00;;;20.10;47.85
72359;BME280;60317;48.880;-0.862;2022-09-17T01:22:38;100938.63;;;20.09;47.67
72359;BME280;60317;48.880;-0.862;2022-09-17T01:25:15;100944.84;;;20.10;47.65
72359;BME280;60317;48.880;-0.862;2022-09-17T01:27:48;100935.94;;;20.09;47.61
72359;BME280;60317;48.880;-0.862;2022-09-17T01:30:33;100936.03;;;20.08;47.75
72359;BME280;60317;48.880;-0.862;2022-09-17T01:33:02;100942.28;;;20.08;47.59
72359;BME280;60317;48.880;-0.862;2022-09-17T01:35:35;100933.34;;;20.08;47.56
72359;BME280;60317;48.880;-0.862;2022-09-17T01:38:09;100939.69;;;20.07;47.66
72359;BME280;60317;48.880;-0.862;2022-09-17T01:40:38;100940.53;;;20.07;47.55
72359;BME280;60317;48.880;-0.862;2022-09-17T01:43:07;100944.22;;;20.06;47.62
72359;BME280;60317;48.880;-0.862;2022-09-17T01:45:37;100944.22;;;20.06;47.57
72359;BME280;60317;48.880;-0.862;2022-09-17T01:48:06;100953.25;;;20.05;47.56
72359;BME280;60317;48.880;-0.862;2022-09-17T01:50:35;100953.25;;;20.05;47.51
72359;BME280;60317;48.880;-0.862;2022-09-17T01:53:03;100961.16;;;20.07;47.46
72359;BME280;60317;48.880;-0.862;2022-09-17T01:55:32;100957.75;;;20.05;47.53
72359;BME280;60317;48.880;-0.862;2022-09-17T01:58:01;100961.41;;;20.03;47.58
72359;BME280;60317;48.880;-0.862;2022-09-17T02:00:29;100957.75;;;20.05;47.34
72359;BME280;60317;48.880;-0.862;2022-09-17T02:02:58;100953.34;;;20.03;47.55
72359;BME280;60317;48.880;-0.862;2022-09-17T02:05:26;100949.81;;;20.03;47.39
72359;BME280;60317;48.880;-0.862;2022-09-17T02:07:55;100946.28;;;20.02;47.55
72359;BME280;60317;48.880;-0.862;2022-09-17T02:10:24;100953.47;;;20.02;47.36
72359;BME280;60317;48.880;-0.862;2022-09-17T02:12:54;100955.31;;;20.01;47.32
72359;BME280;60317;48.880;-0.862;2022-09-17T02:15:21;100968.72;;;20.01;47.32
72359;BME280;60317;48.880;-0.862;2022-09-17T02:17:50;100964.22;;;20.02;47.43
72359;BME280;60317;48.880;-0.862;2022-09-17T02:20:22;100957.16;;;20.01;47.35
72359;BME280;60317;48.880;-0.862;2022-09-17T02:22:51;100958.94;;;20.00;47.25
72359;BME280;60317;48.880;-0.862;2022-09-17T02:25:19;100956.25;;;20.00;47.45
72359;BME280;60317;48.880;-0.862;2022-09-17T02:27:48;100965.28;;;19.99;47.36
72359;BME280;60317;48.880;-0.862;2022-09-17T02:30:16;100966.16;;;20.00;47.17
72359;BME280;60317;48.880;-0.862;2022-09-17T02:32:42;100961.63;;;20.00;47.33
72359;BME280;60317;48.880;-0.862;2022-09-17T02:35:09;100953.59;;;20.00;47.37
72359;BME280;60317;48.880;-0.862;2022-09-17T02:37:36;100962.63;;;19.99;47.26
72359;BME280;60317;48.880;-0.862;2022-09-17T02:40:03;100971.50;;;20.00;47.17
72359;BME280;60317;48.880;-0.862;2022-09-17T02:42:31;100969.94;;;19.97;47.22
72359;BME280;60317;48.880;-0.862;2022-09-17T02:45:04;100972.63;;;19.97;47.25
72359;BME280;60317;48.880;-0.862;2022-09-17T02:47:35;100981.53;;;19.98;47.17
72359;BME280;60317;48.880;-0.862;2022-09-17T02:50:11;100977.25;;;19.95;47.12
72359;BME280;60317;48.880;-0.862;2022-09-17T02:52:49;100976.25;;;19.96;46.89
72359;BME280;60317;48.880;-0.862;2022-09-17T02:55:21;100970.19;;;19.94;47.12
72359;BME280;60317;48.880;-0.862;2022-09-17T02:57:51;100983.59;;;19.94;46.96
72359;BME280;60317;48.880;-0.862;2022-09-17T03:00:20;100988.09;;;19.94;47.08
72359;BME280;60317;48.880;-0.862;2022-09-17T03:02:49;100986.13;;;19.96;47.12
72359;BME280;60317;48.880;-0.862;2022-09-17T03:05:16;100986.28;;;19.94;46.88
72359;BME280;60317;48.880;-0.862;2022-09-17T03:07:43;100985.28;;;19.95;47.07
72359;BME280;60317;48.880;-0.862;2022-09-17T03:10:11;100976.25;;;19.96;46.88
72359;BME280;60317;48.880;-0.862;2022-09-17T03:12:38;100971.88;;;19.95;47.10
72359;BME280;60317;48.880;-0.862;2022-09-17T03:15:04;100974.69;;;19.94;47.01
72359;BME280;60317;48.880;-0.862;2022-09-17T03:17:31;100972.97;;;19.93;46.84
72359;BME280;60317;48.880;-0.862;2022-09-17T03:19:57;100974.91;;;19.91;47.02
72359;BME280;60317;48.880;-0.862;2022-09-17T03:22:23;100977.59;;;19.91;46.85
72359;BME280;60317;48.880;-0.862;2022-09-17T03:24:50;100978.31;;;19.93;46.68
72359;BME280;60317;48.880;-0.862;2022-09-17T03:27:18;100977.59;;;19.91;46.74
72359;BME280;60317;48.880;-0.862;2022-09-17T03:29:44;100976.00;;;19.88;46.84
72359;BME280;60317;48.880;-0.862;2022-09-17T03:32:10;100978.56;;;19.90;46.71
72359;BME280;60317;48.880;-0.862;2022-09-17T03:34:37;100982.34;;;19.87;46.83
72359;BME280;60317;48.880;-0.862;2022-09-17T03:37:03;100983.06;;;19.89;46.69
72359;BME280;60317;48.880;-0.862;2022-09-17T03:39:29;100984.06;;;19.88;46.51
72359;BME280;60317;48.880;-0.862;2022-09-17T03:41:56;100981.38;;;19.88;46.52
72359;BME280;60317;48.880;-0.862;2022-09-17T03:44:24;100989.53;;;19.87;46.70
72359;BME280;60317;48.880;-0.862;2022-09-17T03:46:50;100997.59;;;19.87;46.66
72359;BME280;60317;48.880;-0.862;2022-09-17T03:49:17;100996.63;;;19.88;46.64
72359;BME280;60317;48.880;-0.862;2022-09-17T03:51:43;100994.03;;;19.86;46.73
72359;BME280;60317;48.880;-0.862;2022-09-17T03:54:10;100990.63;;;19.84;46.61
72359;BME280;60317;48.880;-0.862;2022-09-17T03:56:36;100987.81;;;19.86;46.75
72359;BME280;60317;48.880;-0.862;2022-09-17T03:59:02;100985.13;;;19.86;46.55
72359;BME280;60317;48.880;-0.862;2022-09-17T04:01:30;100987.94;;;19.84;46.41
72359;BME280;60317;48.880;-0.862;2022-09-17T04:03:56;100998.69;;;19.84;46.58
72359;BME280;60317;48.880;-0.862;2022-09-17T04:06:23;100996.97;;;19.83;46.59
72359;BME280;60317;48.880;-0.862;2022-09-17T04:08:49;100999.66;;;19.83;46.46
72359;BME280;60317;48.880;-0.862;2022-09-17T04:11:16;100992.56;;;19.82;46.37
72359;BME280;60317;48.880;-0.862;2022-09-17T04:13:42;100994.38;;;19.82;46.37
72359;BME280;60317;48.880;-0.862;2022-09-17T04:16:09;100990.72;;;19.83;46.51
72359;BME280;60317;48.880;-0.862;2022-09-17T04:18:36;100999.75;;;19.82;46.38
72359;BME280;60317;48.880;-0.862;2022-09-17T04:21:03;100992.69;;;19.81;46.55
72359;BME280;60317;48.880;-0.862;2022-09-17T04:23:29;100997.91;;;19.82;46.48
72359;BME280;60317;48.880;-0.862;2022-09-17T04:25:56;100989.25;;;19.78;46.41
72359;BME280;60317;48.880;-0.862;2022-09-17T04:28:22;100992.69;;;19.81;46.17
72359;BME280;60317;48.880;-0.862;2022-09-17T04:30:48;100984.63;;;19.81;46.37
72359;BME280;60317;48.880;-0.862;2022-09-17T04:33:15;100995.25;;;19.82;46.36
72359;BME280;60317;48.880;-0.862;2022-09-17T04:35:42;100997.19;;;19.80;46.25
72359;BME280;60317;48.880;-0.862;2022-09-17T04:38:09;101003.41;;;19.81;46.07
72359;BME280;60317;48.880;-0.862;2022-09-17T04:40:35;100997.44;;;19.77;46.18
72359;BME280;60317;48.880;-0.862;2022-09-17T04:43:01;100994.84;;;19.75;46.21
72359;BME280;60317;48.880;-0.862;2022-09-17T04:45:28;100991.22;;;19.76;46.12
72359;BME280;60317;48.880;-0.862;2022-09-17T04:47:54;101005.47;;;19.77;46.30
72359;BME280;60317;48.880;-0.862;2022-09-17T04:50:21;100999.25;;;19.76;46.04
72359;BME280;60317;48.880;-0.862;2022-09-17T04:52:49;100993.16;;;19.74;46.18
72359;BME280;60317;48.880;-0.862;2022-09-17T04:55:15;100996.69;;;19.75;46.21
72359;BME280;60317;48.880;-0.862;2022-09-17T04:57:44;100993.00;;;19.76;46.00
72359;BME280;60317;48.880;-0.862;2022-09-17T05:00:11;100994.13;;;19.73;46.09
72359;BME280;60317;48.880;-0.862;2022-09-17T05:02:37;100990.34;;;19.76;46.17
72359;BME280;60317;48.880;-0.862;2022-09-17T05:05:04;101001.94;;;19.76;46.16
72359;BME280;60317;48.880;-0.862;2022-09-17T05:07:30;101005.56;;;19.75;46.00
72359;BME280;60317;48.880;-0.862;2022-09-17T05:09:58;101002.03;;;19.75;45.96
72359;BME280;60317;48.880;-0.862;2022-09-17T05:12:24;101003.03;;;19.74;45.77
72359;BME280;60317;48.880;-0.862;2022-09-17T05:14:50;101001.31;;;19.73;45.88
72359;BME280;60317;48.880;-0.862;2022-09-17T05:17:17;101010.22;;;19.73;45.87
72359;BME280;60317;48.880;-0.862;2022-09-17T05:19:43;101001.56;;;19.70;45.86
72359;BME280;60317;48.880;-0.862;2022-09-17T05:22:09;101008.63;;;19.71;45.94
72359;BME280;60317;48.880;-0.862;2022-09-17T05:24:36;101013.00;;;19.72;45.86
72359;BME280;60317;48.880;-0.862;2022-09-17T05:27:04;101012.16;;;19.71;45.83
72359;BME280;60317;48.880;-0.862;2022-09-17T05:29:30;101014.97;;;19.70;45.88
72359;BME280;60317;48.880;-0.862;2022-09-17T05:31:56;101013.22;;;19.69;45.80
72359;BME280;60317;48.880;-0.862;2022-09-17T05:34:23;101012.38;;;19.68;45.74
72359;BME280;60317;48.880;-0.862;2022-09-17T05:36:49;101018.59;;;19.69;45.77
72359;BME280;60317;48.880;-0.862;2022-09-17T05:39:16;101017.75;;;19.68;45.58
72359;BME280;60317;48.880;-0.862;2022-09-17T05:41:42;101021.28;;;19.69;45.84
72359;BME280;60317;48.880;-0.862;2022-09-17T05:44:10;101021.53;;;19.66;45.67
72359;BME280;60317;48.880;-0.862;2022-09-17T05:46:42;101025.78;;;19.68;45.72
72359;BME280;60317;48.880;-0.862;2022-09-17T05:49:09;101023.22;;;19.67;45.59
72359;BME280;60317;48.880;-0.862;2022-09-17T05:51:35;101019.56;;;19.68;45.51
72359;BME280;60317;48.880;-0.862;2022-09-17T05:54:01;101022.25;;;19.68;45.65
72359;BME280;60317;48.880;-0.862;2022-09-17T05:56:28;101017.00;;;19.66;45.42
72359;BME280;60317;48.880;-0.862;2022-09-17T05:58:54;101030.53;;;19.65;45.53
72359;BME280;60317;48.880;-0.862;2022-09-17T06:01:22;101028.81;;;19.64;45.56
72359;BME280;60317;48.880;-0.862;2022-09-17T06:03:49;101027.75;;;19.66;45.32
72359;BME280;60317;48.880;-0.862;2022-09-17T06:06:15;101025.16;;;19.65;45.46
72359;BME280;60317;48.880;-0.862;2022-09-17T06:08:42;101043.19;;;19.63;45.67
72359;BME280;60317;48.880;-0.862;2022-09-17T06:11:08;101043.19;;;19.63;45.33
72359;BME280;60317;48.880;-0.862;2022-09-17T06:13:35;101041.38;;;19.63;45.39
72359;BME280;60317;48.880;-0.862;2022-09-17T06:16:01;101043.19;;;19.63;45.41
72359;BME280;60317;48.880;-0.862;2022-09-17T06:18:30;101047.78;;;19.61;45.38
72359;BME280;60317;48.880;-0.862;2022-09-17T06:20:57;101055.81;;;19.61;45.39
72359;BME280;60317;48.880;-0.862;2022-09-17T06:23:24;101046.94;;;19.60;45.45
72359;BME280;60317;48.880;-0.862;2022-09-17T06:25:51;101046.16;;;19.58;45.53
72359;BME280;60317;48.880;-0.862;2022-09-17T06:28:18;101036.34;;;19.59;45.46
72359;BME280;60317;48.880;-0.862;2022-09-17T06:30:44;101045.94;;;19.61;45.20
72359;BME280;60317;48.880;-0.862;2022-09-17T06:33:10;101048.63;;;19.61;45.44
72359;BME280;60317;48.880;-0.862;2022-09-17T06:35:38;101056.81;;;19.60;45.43
72359;BME280;60317;48.880;-0.862;2022-09-17T06:38:04;101058.72;;;19.58;45.29
72359;BME280;60317;48.880;-0.862;2022-09-17T06:40:31;101064.09;;;19.58;45.17
72359;BME280;60317;48.880;-0.862;2022-09-17T06:42:58;101060.56;;;19.57;45.27
72359;BME280;60317;48.880;-0.862;2022-09-17T06:45:24;101058.72;;;19.58;45.43
72359;BME280;60317;48.880;-0.862;2022-09-17T06:47:51;101062.16;;;19.60;45.30
72359;BME280;60317;48.880;-0.862;2022-09-17T06:50:17;101058.72;;;19.58;45.17
72359;BME280;60317;48.880;-0.862;2022-09-17T06:52:48;101059.69;;;19.57;45.16
72359;BME280;60317;48.880;-0.862;2022-09-17T06:55:14;101066.78;;;19.58;45.31
72359;BME280;60317;48.880;-0.862;2022-09-17T06:57:41;101069.56;;;19.56;45.22
72359;BME280;60317;48.880;-0.862;2022-09-17T07:00:08;101070.44;;;19.57;45.22
72359;BME280;60317;48.880;-0.862;2022-09-17T07:02:34;101069.56;;;19.56;45.44
72359;BME280;60317;48.880;-0.862;2022-09-17T07:05:01;101065.06;;;19.57;45.25
72359;BME280;60317;48.880;-0.862;2022-09-17T07:07:27;101065.06;;;19.57;45.20
72359;BME280;60317;48.880;-0.862;2022-09-17T07:09:55;101074.94;;;19.56;45.36
72359;BME280;60317;48.880;-0.862;2022-09-17T07:12:22;101067.53;;;19.60;45.35
72359;BME280;60317;48.880;-0.862;2022-09-17T07:14:48;101068.59;;;19.57;45.29
72359;BME280;60317;48.880;-0.862;2022-09-17T07:17:14;101067.53;;;19.60;45.39
72359;BME280;60317;48.880;-0.862;2022-09-17T07:19:41;101070.22;;;19.60;45.48
72359;BME280;60317;48.880;-0.862;2022-09-17T07:22:07;101080.31;;;19.56;45.36
72359;BME280;60317;48.880;-0.862;2022-09-17T07:24:34;101082.13;;;19.55;45.31
72359;BME280;60317;48.880;-0.862;2022-09-17T07:27:01;101086.16;;;19.61;45.46
72359;BME280;60317;48.880;-0.862;2022-09-17T07:29:28;101075.78;;;19.57;45.51
72359;BME280;60317;48.880;-0.862;2022-09-17T07:31:54;101074.81;;;19.58;45.53
72359;BME280;60317;48.880;-0.862;2022-09-17T07:34:20;101068.25;;;19.62;45.48
72359;BME280;60317;48.880;-0.862;2022-09-17T07:36:47;101074.81;;;19.58;45.51
72359;BME280;60317;48.880;-0.862;2022-09-17T07:39:13;101083.50;;;19.61;45.48
72359;BME280;60317;48.880;-0.862;2022-09-17T07:41:39;101083.50;;;19.61;45.56
72359;BME280;60317;48.880;-0.862;2022-09-17T07:44:07;101085.31;;;19.61;45.48
72359;BME280;60317;48.880;-0.862;2022-09-17T07:46:34;101076.41;;;19.60;45.67
72359;BME280;60317;48.880;-0.862;2022-09-17T07:49:00;101070.31;;;19.58;45.40
72359;BME280;60317;48.880;-0.862;2022-09-17T07:51:27;101075.44;;;19.61;45.80
72359;BME280;60317;48.880;-0.862;2022-09-17T07:53:54;101069.22;;;19.61;45.59
72359;BME280;60317;48.880;-0.862;2022-09-17T07:56:21;101078.13;;;19.61;45.72
72359;BME280;60317;48.880;-0.862;2022-09-17T07:58:47;101075.66;;;19.58;45.79
72359;BME280;60317;48.880;-0.862;2022-09-17T08:01:15;101074.59;;;19.61;45.87
72359;BME280;60317;48.880;-0.862;2022-09-17T08:03:42;101080.94;;;19.60;45.76
72359;BME280;60317;48.880;-0.862;2022-09-17T08:06:13;101084.47;;;19.60;45.79
72359;BME280;60317;48.880;-0.862;2022-09-17T08:08:40;101086.28;;;19.60;45.93
72359;BME280;60317;48.880;-0.862;2022-09-17T08:11:07;101090.59;;;19.62;45.82
72359;BME280;60317;48.880;-0.862;2022-09-17T08:13:34;101080.75;;;19.63;45.84
72359;BME280;60317;48.880;-0.862;2022-09-17T08:16:01;101079.88;;;19.62;45.96
72359;BME280;60317;48.880;-0.862;2022-09-17T08:18:30;101083.44;;;19.63;45.94
72359;BME280;60317;48.880;-0.862;2022-09-17T08:20:56;101088.00;;;19.61;45.72
72359;BME280;60317;48.880;-0.862;2022-09-17T08:23:23;101095.94;;;19.62;45.86
72359;BME280;60317;48.880;-0.862;2022-09-17T08:25:51;101099.50;;;19.63;45.84
72359;BME280;60317;48.880;-0.862;2022-09-17T08:28:17;101103.91;;;19.64;45.86
72359;BME280;60317;48.880;-0.862;2022-09-17T08:30:43;101095.84;;;19.64;45.90
72359;BME280;60317;48.880;-0.862;2022-09-17T08:33:10;101098.53;;;19.64;45.88
72359;BME280;60317;48.880;-0.862;2022-09-17T08:35:37;101102.06;;;19.64;45.82
72359;BME280;60317;48.880;-0.862;2022-09-17T08:38:04;101111.94;;;19.64;46.03
72359;BME280;60317;48.880;-0.862;2022-09-17T08:40:30;101109.25;;;19.64;45.94
72359;BME280;60317;48.880;-0.862;2022-09-17T08:42:58;101103.91;;;19.64;46.13
72359;BME280;60317;48.880;-0.862;2022-09-17T08:45:26;101104.75;;;19.64;46.14
72359;BME280;60317;48.880;-0.862;2022-09-17T08:47:53;101106.59;;;19.64;46.00
72359;BME280;60317;48.880;-0.862;2022-09-17T08:50:23;101111.81;;;19.65;45.94
72359;BME280;60317;48.880;-0.862;2022-09-17T08:52:58;101110.13;;;19.64;46.06
72359;BME280;60317;48.880;-0.862;2022-09-17T08:55:28;101111.94;;;19.64;46.19
72359;BME280;60317;48.880;-0.862;2022-09-17T08:57:57;101121.81;;;19.63;46.06
72359;BME280;60317;48.880;-0.862;2022-09-17T09:00:27;101113.78;;;19.63;46.17
72359;BME280;60317;48.880;-0.862;2022-09-17T09:03:01;101120.00;;;19.64;46.21
72359;BME280;60317;48.880;-0.862;2022-09-17T09:05:34;101121.81;;;19.63;46.26
72359;BME280;60317;48.880;-0.862;2022-09-17T09:08:09;101123.53;;;19.64;46.29
72359;BME280;60317;48.880;-0.862;2022-09-17T09:10:41;101118.16;;;19.64;46.18
72359;BME280;60317;48.880;-0.862;2022-09-17T09:13:10;101126.19;;;19.64;46.12
72359;BME280;60317;48.880;-0.862;2022-09-17T09:15:41;101118.06;;;19.66;46.05
72359;BME280;60317;48.880;-0.862;2022-09-17T09:18:11;101133.28;;;19.65;46.29
72359;BME280;60317;48.880;-0.862;2022-09-17T09:20:42;101119.88;;;19.65;46.18
72359;BME280;60317;48.880;-0.862;2022-09-17T09:23:16;101118.06;;;19.66;46.26
72359;BME280;60317;48.880;-0.862;2022-09-17T09:25:47;101125.22;;;19.65;46.17
72359;BME280;60317;48.880;-0.862;2022-09-17T09:28:19;101121.59;;;19.66;46.19
72359;BME280;60317;48.880;-0.862;2022-09-17T09:30:54;101127.91;;;19.65;46.06
72359;BME280;60317;48.880;-0.862;2022-09-17T09:33:25;101129.75;;;19.65;46.14
72359;BME280;60317;48.880;-0.862;2022-09-17T09:35:52;101122.66;;;19.64;45.92
72359;BME280;60317;48.880;-0.862;2022-09-17T09:38:21;101130.59;;;19.65;46.04
72359;BME280;60317;48.880;-0.862;2022-09-17T09:40:54;101121.59;;;19.66;45.66
72359;BME280;60317;48.880;-0.862;2022-09-17T09:43:23;101131.34;;;19.67;45.59
72359;BME280;60317;48.880;-0.862;2022-09-17T09:46:21;101130.59;;;19.65;45.50
72359;BME280;60317;48.880;-0.862;2022-09-17T09:48:55;101129.66;;;19.66;45.78
72359;BME280;60317;48.880;-0.862;2022-09-17T09:51:30;101128.78;;;19.66;45.71
72359;BME280;60317;48.880;-0.862;2022-09-17T09:54:06;101129.66;;;19.66;45.58
72359;BME280;60317;48.880;-0.862;2022-09-17T09:56:42;101128.78;;;19.66;45.71
72359;BME280;60317;48.880;-0.862;2022-09-17T09:59:13;101129.66;;;19.66;45.61
72359;BME280;60317;48.880;-0.862;2022-09-17T10:01:40;101131.34;;;19.67;45.25
72359;BME280;60317;48.880;-0.862;2022-09-17T10:04:13;101130.50;;;19.67;45.70
72359;BME280;60317;48.880;-0.862;2022-09-17T10:06:40;101129.66;;;19.66;45.64
72359;BME280;60317;48.880;-0.862;2022-09-17T10:09:10;101126.97;;;19.66;45.56
72359;BME280;60317;48.880;-0.862;2022-09-17T10:11:37;101119.78;;;19.67;45.56
72359;BME280;60317;48.880;-0.862;2022-09-17T10:14:13;101124.16;;;19.68;45.47
72359;BME280;60317;48.880;-0.862;2022-09-17T10:16:39;101129.53;;;19.68;45.38
72359;BME280;60317;48.880;-0.862;2022-09-17T10:19:11;101123.31;;;19.67;45.42
72359;BME280;60317;48.880;-0.862;2022-09-17T10:21:38;101119.66;;;19.68;45.23
72359;BME280;60317;48.880;-0.862;2022-09-17T10:24:09;101124.16;;;19.68;45.32
72359;BME280;60317;48.880;-0.862;2022-09-17T10:26:38;101125.00;;;19.68;45.33
72359;BME280;60317;48.880;-0.862;2022-09-17T10:29:05;101126.75;;;19.69;45.34
72359;BME280;60317;48.880;-0.862;2022-09-17T10:31:44;101113.34;;;19.69;45.01
72359;BME280;60317;48.880;-0.862;2022-09-17T10:34:17;101117.81;;;19.69;45.24
72359;BME280;60317;48.880;-0.862;2022-09-17T10:36:44;101126.63;;;19.71;45.19
72359;BME280;60317;48.880;-0.862;2022-09-17T10:39:19;101121.88;;;19.74;45.20
72359;BME280;60317;48.880;-0.862;2022-09-17T10:41:53;101118.56;;;19.71;45.14
72359;BME280;60317;48.880;-0.862;2022-09-17T10:44:21;101121.25;;;19.71;44.66
72359;BME280;60317;48.880;-0.862;2022-09-17T10:46:47;101121.25;;;19.71;44.54
72359;BME280;60317;48.880;-0.862;2022-09-17T10:49:17;101116.38;;;19.76;44.53
72359;BME280;60317;48.880;-0.862;2022-09-17T10:51:47;101119.31;;;19.73;44.52
72359;BME280;60317;48.880;-0.862;2022-09-17T10:54:17;101116.66;;;19.73;44.32
72359;BME280;60317;48.880;-0.862;2022-09-17T10:56:50;101110.66;;;19.69;44.61
72359;BME280;60317;48.880;-0.862;2022-09-17T10:59:24;101106.22;;;19.68;44.60
72359;BME280;60317;48.880;-0.862;2022-09-17T11:01:58;101117.81;;;19.69;44.63
72359;BME280;60317;48.880;-0.862;2022-09-17T11:04:33;101111.38;;;19.71;44.55
72359;BME280;60317;48.880;-0.862;2022-09-17T11:07:10;101112.13;;;19.73;44.28
72359;BME280;60317;48.880;-0.862;2022-09-17T11:09:46;101106.41;;;19.78;44.22
72359;BME280;60317;48.880;-0.862;2022-09-17T11:12:22;101107.84;;;19.71;44.48
72359;BME280;60317;48.880;-0.862;2022-09-17T11:14:52;101097.97;;;19.71;44.50
72359;BME280;60317;48.880;-0.862;2022-09-17T11:17:34;101094.44;;;19.71;44.46
72359;BME280;60317;48.880;-0.862;2022-09-17T11:20:08;101095.91;;;19.75;44.15
72359;BME280;60317;48.880;-0.862;2022-09-17T11:22:44;101088.94;;;19.72;44.47
72359;BME280;60317;48.880;-0.862;2022-09-17T11:25:21;101079.19;;;19.71;44.29
72359;BME280;60317;48.880;-0.862;2022-09-17T11:27:53;101091.53;;;19.74;44.41
72359;BME280;60317;48.880;-0.862;2022-09-17T11:30:23;101092.50;;;19.73;44.47
72359;BME280;60317;48.880;-0.862;2022-09-17T11:32:53;101090.78;;;19.72;44.62
72359;BME280;60317;48.880;-0.862;2022-09-17T11:35:25;101089.81;;;19.73;44.41
72359;BME280;60317;48.880;-0.862;2022-09-17T11:37:53;101090.78;;;19.72;44.47
72359;BME280;60317;48.880;-0.862;2022-09-17T11:40:27;101093.59;;;19.70;44.43
72359;BME280;60317;48.880;-0.862;2022-09-17T11:42:58;101093.44;;;19.72;44.35
72359;BME280;60317;48.880;-0.862;2022-09-17T11:45:29;101085.19;;;19.75;44.20
72359;BME280;60317;48.880;-0.862;2022-09-17T11:47:59;101087.00;;;19.74;44.24
72359;BME280;60317;48.880;-0.862;2022-09-17T11:50:28;101087.16;;;19.73;44.24
72359;BME280;60317;48.880;-0.862;2022-09-17T11:52:59;101085.31;;;19.73;44.27
72359;BME280;60317;48.880;-0.862;2022-09-17T11:55:31;101074.59;;;19.73;44.32
72359;BME280;60317;48.880;-0.862;2022-09-17T11:57:59;101063.94;;;19.72;44.40
72359;BME280;60317;48.880;-0.862;2022-09-17T12:00:29;101068.47;;;19.71;44.39
72359;BME280;60317;48.880;-0.862;2022-09-17T12:02:59;101063.09;;;19.71;44.28
72359;BME280;60317;48.880;-0.862;2022-09-17T12:05:27;101064.09;;;19.70;44.50
72359;BME280;60317;48.880;-0.862;2022-09-17T12:07:58;101062.03;;;19.74;44.20
72359;BME280;60317;48.880;-0.862;2022-09-17T12:10:34;101068.25;;;19.74;43.96
72359;BME280;60317;48.880;-0.862;2022-09-17T12:13:04;101058.38;;;19.75;44.04
72359;BME280;60317;48.880;-0.862;2022-09-17T12:15:37;101060.31;;;19.73;44.04
72359;BME280;60317;48.880;-0.862;2022-09-17T12:18:10;101060.31;;;19.73;44.11
72359;BME280;60317;48.880;-0.862;2022-09-17T12:20:57;101062.03;;;19.74;44.01
72359;BME280;60317;48.880;-0.862;2022-09-17T12:23:29;101057.38;;;19.76;43.50
72359;BME280;60317;48.880;-0.862;2022-09-17T12:26:01;101063.72;;;19.75;44.20
72359;BME280;60317;48.880;-0.862;2022-09-17T12:28:31;101054.97;;;19.73;44.06
72359;BME280;60317;48.880;-0.862;2022-09-17T12:31:03;101062.03;;;19.74;44.07
72359;BME280;60317;48.880;-0.862;2022-09-17T12:33:31;101060.31;;;19.73;44.10
72359;BME280;60317;48.880;-0.862;2022-09-17T12:36:02;101056.66;;;19.74;44.10
72359;BME280;60317;48.880;-0.862;2022-09-17T12:38:45;101060.19;;;19.74;43.98
72359;BME280;60317;48.880;-0.862;2022-09-17T12:41:14;101054.97;;;19.73;44.14
72359;BME280;60317;48.880;-0.862;2022-09-17T12:43:49;101051.31;;;19.74;44.30
72359;BME280;60317;48.880;-0.862;2022-09-17T12:46:24;101054.84;;;19.74;43.96
72359;BME280;60317;48.880;-0.862;2022-09-17T12:48:57;101052.16;;;19.74;43.77
72359;BME280;60317;48.880;-0.862;2022-09-17T12:51:36;101047.53;;;19.76;43.84